Time;durP1;ratioP1;P1;durP2;ratioP2;P2;SDS_P1;SDS_P2;PMS_P1;PMS_P2;Temp;Humidity;BMP_temperature;BMP_pressure;BME280_temperature;BME280_humidity;BME280_pressure;Samples;Min_cycle;Max_cycle;Signal;HPM_P1;HPM_P2
2021/11/22 00:01:13;;;;;;;9.15;1.45;;;6.10;99.90;;;;;;6154964;23;20023;-83
2021/11/22 00:03:39;;;;;;;4.45;0.82;;;6.50;99.90;;;;;;6156024;23;20405;-83
2021/11/22 00:06:05;;;;;;;5.72;0.80;;;5.60;99.90;;;;;;6154617;23;20028;-84
2021/11/22 00:08:31;;;;;;;4.47;0.77;;;6.10;99.90;;;;;;6160973;23;20025;-84
2021/11/22 00:10:57;;;;;;;6.35;0.93;;;6.30;99.90;;;;;;6179834;23;20112;-84
2021/11/22 00:13:22;;;;;;;4.03;0.70;;;5.50;99.90;;;;;;6180682;23;20017;-83
2021/11/22 00:15:48;;;;;;;6.65;0.68;;;5.50;99.90;;;;;;6178979;23;20009;-83
2021/11/22 00:18:14;;;;;;;4.20;0.77;;;5.40;99.90;;;;;;6178599;23;20013;-84
2021/11/22 00:20:40;;;;;;;2.05;0.60;;;5.50;99.90;;;;;;6178557;23;20048;-83
2021/11/22 00:23:06;;;;;;;7.07;0.90;;;5.90;99.90;;;;;;6181084;23;20368;-83
2021/11/22 00:25:32;;;;;;;6.80;1.00;;;5.40;99.90;;;;;;6181017;23;20342;-81
2021/11/22 00:27:58;;;;;;;3.85;1.10;;;5.40;99.90;;;;;;6180920;23;20013;-81
2021/11/22 00:30:23;;;;;;;3.60;0.70;;;6.40;99.90;;;;;;6181468;23;20020;-82
2021/11/22 00:32:49;;;;;;;5.97;0.82;;;5.50;99.90;;;;;;6156297;23;20021;-82
2021/11/22 00:35:53;;;;;;;3.20;0.52;;;5.50;99.90;;;;;;6180881;23;20012;-82
2021/11/22 00:38:19;;;;;;;4.78;0.75;;;5.50;99.90;;;;;;6156562;23;20444;-83
2021/11/22 00:40:45;;;;;;;2.05;0.60;;;6.00;99.90;;;;;;6156263;23;20017;-83
2021/11/22 00:43:12;;;;;;;3.47;0.73;;;5.80;99.90;;;;;;6180838;23;20743;-84
2021/11/22 00:45:39;;;;;;;8.45;0.85;;;5.50;99.90;;;;;;6182675;23;20040;-83
2021/11/22 00:48:05;;;;;;;6.35;0.70;;;5.60;99.90;;;;;;6155840;23;20428;-83
2021/11/22 00:50:34;;;;;;;4.10;0.68;;;5.50;99.90;;;;;;6156316;23;20402;-83
2021/11/22 00:53:00;;;;;;;5.22;0.63;;;5.50;99.90;;;;;;6156409;23;20303;-83
2021/11/22 00:55:27;;;;;;;6.43;0.65;;;6.00;99.90;;;;;;6183112;23;20047;-83
2021/11/22 00:57:52;;;;;;;3.20;0.63;;;5.50;99.90;;;;;;6181269;23;20017;-83
2021/11/22 01:00:20;;;;;;;7.93;0.77;;;5.50;99.90;;;;;;6156014;23;20056;-81
2021/11/22 01:02:46;;;;;;;4.70;0.75;;;5.80;99.90;;;;;;6181476;23;20390;-82
2021/11/22 01:05:12;;;;;;;2.42;0.45;;;5.90;99.90;;;;;;6180547;23;20070;-82
2021/11/22 01:07:38;;;;;;;13.57;0.75;;;5.50;99.90;;;;;;6181270;23;20032;-82
2021/11/22 01:10:06;;;;;;;5.75;0.77;;;6.10;99.90;;;;;;6182469;23;20051;-82
2021/11/22 01:12:32;;;;;;;7.30;0.70;;;5.30;99.90;;;;;;6131916;23;20396;-82
2021/11/22 01:15:00;;;;;;;4.75;0.70;;;5.70;99.90;;;;;;6155962;23;20048;-82
2021/11/22 01:17:27;;;;;;;8.07;0.60;;;6.00;99.90;;;;;;6181537;23;20013;-82
2021/11/22 01:19:53;;;;;;;2.88;0.52;;;5.30;99.90;;;;;;6155868;23;20040;-82
2021/11/22 01:22:21;;;;;;;7.47;0.55;;;5.80;99.90;;;;;;6156609;23;20477;-82
2021/11/22 01:24:47;;;;;;;3.25;0.50;;;5.30;99.90;;;;;;6156662;23;20024;-82
2021/11/22 01:27:16;;;;;;;6.40;1.00;;;5.30;99.90;;;;;;6181656;23;20023;-82
2021/11/22 01:29:42;;;;;;;7.25;0.73;;;5.30;99.90;;;;;;6156102;23;20092;-82
2021/11/22 01:32:08;;;;;;;6.55;1.00;;;5.80;99.90;;;;;;6154608;23;20395;-82
2021/11/22 01:34:34;;;;;;;11.80;1.10;;;5.20;99.90;;;;;;6181713;23;20013;-83
2021/11/22 01:37:00;;;;;;;5.28;0.82;;;6.00;99.90;;;;;;6155276;23;20013;-83
2021/11/22 01:39:26;;;;;;;7.65;0.60;;;5.40;99.90;;;;;;6155691;23;20048;-83
2021/11/22 01:41:52;;;;;;;2.67;0.60;;;5.70;99.90;;;;;;6155669;23;20436;-83
2021/11/22 01:44:18;;;;;;;7.32;1.10;;;5.00;99.90;;;;;;6156205;23;20341;-82
2021/11/22 01:46:46;;;;;;;5.45;0.80;;;5.00;99.90;;;;;;6155652;23;20017;-82
2021/11/22 01:49:21;;;;;;;3.45;0.82;;;5.10;99.90;;;;;;6155435;23;20032;-82
2021/11/22 01:51:47;;;;;;;6.03;0.73;;;4.60;99.90;;;;;;6132624;23;20016;-82
2021/11/22 01:54:16;;;;;;;13.68;0.60;;;5.10;99.90;;;;;;6158197;23;20398;-82
2021/11/22 01:56:45;;;;;;;4.90;0.80;;;4.90;99.90;;;;;;6183682;23;20051;-82
2021/11/22 01:59:16;;;;;;;5.47;0.70;;;4.50;99.90;;;;;;6158394;23;20410;-82
2021/11/22 02:01:43;;;;;;;5.13;0.80;;;4.40;99.90;;;;;;6184032;23;20029;-82
2021/11/22 02:04:10;;;;;;;7.88;0.93;;;5.20;99.90;;;;;;6183925;23;20016;-82
2021/11/22 02:06:36;;;;;;;5.47;0.75;;;4.30;99.90;;;;;;6157889;23;20068;-82
2021/11/22 02:09:03;;;;;;;3.65;0.60;;;4.80;99.90;;;;;;6145012;23;20021;-81
2021/11/22 02:11:30;;;;;;;4.00;0.60;;;4.90;99.90;;;;;;6157863;23;20168;-82
2021/11/22 02:13:55;;;;;;;8.18;0.70;;;4.40;99.90;;;;;;6183809;23;20116;-82
2021/11/22 02:16:21;;;;;;;3.10;0.50;;;4.30;99.90;;;;;;6182551;23;20008;-83
2021/11/22 02:18:47;;;;;;;7.80;0.93;;;4.30;99.90;;;;;;6183227;23;20017;-82
2021/11/22 02:21:14;;;;;;;10.88;0.70;;;5.20;99.90;;;;;;6181350;23;20445;-82
2021/11/22 02:23:40;;;;;;;7.95;0.98;;;4.90;99.90;;;;;;6156185;23;20052;-82
2021/11/22 02:26:06;;;;;;;5.20;0.60;;;4.90;99.90;;;;;;6157430;23;20333;-82
2021/11/22 02:28:32;;;;;;;3.97;0.57;;;4.60;99.90;;;;;;6183765;23;20017;-83
2021/11/22 02:30:58;;;;;;;5.07;0.65;;;5.30;99.90;;;;;;6183199;23;20013;-81
2021/11/22 02:33:24;;;;;;;3.53;0.40;;;4.60;99.90;;;;;;6178249;23;20059;-82
2021/11/22 02:36:01;;;;;;;3.78;0.70;;;4.70;99.90;;;;;;6182150;23;20346;-82
2021/11/22 02:38:39;;;;;;;5.82;0.50;;;5.40;99.90;;;;;;6182708;23;20017;-82
2021/11/22 02:41:07;;;;;;;3.92;0.60;;;4.80;99.90;;;;;;6182634;23;20013;-82
2021/11/22 02:43:37;;;;;;;3.20;0.60;;;5.40;99.90;;;;;;6157610;23;20080;-82
2021/11/22 02:46:03;;;;;;;3.13;0.70;;;5.50;99.90;;;;;;6156632;23;20017;-83
2021/11/22 02:48:29;;;;;;;4.38;0.75;;;5.30;99.90;;;;;;6182226;23;20338;-83
2021/11/22 02:50:55;;;;;;;5.82;0.90;;;5.70;99.90;;;;;;6181714;23;20024;-82
2021/11/22 02:53:24;;;;;;;2.60;0.52;;;5.70;99.90;;;;;;6183062;23;20067;-82
2021/11/22 02:55:51;;;;;;;7.82;1.00;;;6.10;99.90;;;;;;6184893;23;20020;-83
2021/11/22 02:58:21;;;;;;;5.72;0.93;;;5.10;99.90;;;;;;6158319;23;20013;-83
2021/11/22 03:00:50;;;;;;;5.40;0.60;;;5.70;99.90;;;;;;6189023;23;20016;-82
2021/11/22 03:03:16;;;;;;;6.25;0.85;;;5.10;99.90;;;;;;6160541;23;20017;-82
2021/11/22 03:05:42;;;;;;;5.05;0.70;;;5.10;99.90;;;;;;6183465;23;20071;-82
2021/11/22 03:08:08;;;;;;;8.00;1.10;;;5.10;99.90;;;;;;6183879;23;20017;-81
2021/11/22 03:10:33;;;;;;;3.25;0.77;;;5.70;99.90;;;;;;6183720;23;20096;-82
2021/11/22 03:13:00;;;;;;;6.55;1.10;;;5.10;99.90;;;;;;6156527;23;20084;-82
2021/11/22 03:15:27;;;;;;;2.10;0.60;;;5.00;99.90;;;;;;6132625;23;20013;-82
2021/11/22 03:17:53;;;;;;;5.97;0.93;;;5.30;99.90;;;;;;6155170;23;20319;-83
2021/11/22 03:20:21;;;;;;;5.78;1.00;;;5.00;99.90;;;;;;6156816;23;20306;-83
2021/11/22 03:22:48;;;;;;;6.70;0.70;;;5.00;99.90;;;;;;6182442;23;20044;-83
2021/11/22 03:25:16;;;;;;;4.05;0.75;;;4.90;99.90;;;;;;6157604;23;20017;-82
2021/11/22 03:27:43;;;;;;;2.33;0.40;;;5.00;99.90;;;;;;6132717;23;20465;-82
2021/11/22 03:30:10;;;;;;;4.95;0.82;;;4.90;99.90;;;;;;6156877;23;20024;-82
2021/11/22 03:32:36;;;;;;;8.82;1.30;;;4.90;99.90;;;;;;6131618;23;20271;-82
2021/11/22 03:35:03;;;;;;;6.63;0.82;;;4.80;99.90;;;;;;6156151;23;20021;-82
2021/11/22 03:37:29;;;;;;;3.80;0.80;;;4.70;99.90;;;;;;6183966;23;20516;-82
2021/11/22 03:39:56;;;;;;;8.43;1.33;;;4.80;99.90;;;;;;6131867;23;20079;-82
2021/11/22 03:42:23;;;;;;;7.32;1.00;;;4.70;99.90;;;;;;6132367;23;20179;-82
2021/11/22 03:44:50;;;;;;;6.80;0.85;;;5.80;99.90;;;;;;6132456;23;20017;-82
2021/11/22 03:47:15;;;;;;;6.10;1.13;;;5.30;99.90;;;;;;6156883;23;20017;-82
2021/11/22 03:49:41;;;;;;;4.82;0.80;;;4.60;99.90;;;;;;6132137;23;20125;-82
2021/11/22 03:52:09;;;;;;;6.72;1.23;;;4.90;99.90;;;;;;6184039;23;20017;-83
2021/11/22 03:54:35;;;;;;;3.38;0.80;;;5.40;99.90;;;;;;6156944;23;20088;-82
2021/11/22 03:57:01;;;;;;;5.45;1.08;;;5.40;99.90;;;;;;6132454;23;20017;-82
2021/11/22 03:59:27;;;;;;;13.55;1.10;;;4.80;99.90;;;;;;6132300;23;20013;-83
2021/11/22 04:01:53;;;;;;;6.82;1.23;;;5.30;99.90;;;;;;6131663;23;20053;-83
2021/11/22 04:04:18;;;;;;;5.15;0.75;;;4.40;99.90;;;;;;6156793;23;20024;-83
2021/11/22 04:06:44;;;;;;;3.55;0.70;;;4.80;99.90;;;;;;6131545;23;20043;-83
2021/11/22 04:09:10;;;;;;;9.07;0.70;;;4.60;99.90;;;;;;6143891;23;20027;-83
2021/11/22 04:11:36;;;;;;;10.90;1.15;;;4.80;99.90;;;;;;6206766;23;20024;-83
2021/11/22 04:14:03;;;;;;;7.07;1.00;;;4.50;99.90;;;;;;6181627;23;20044;-83
2021/11/22 04:16:29;;;;;;;9.35;0.77;;;4.80;99.90;;;;;;6181351;23;20328;-83
2021/11/22 04:18:55;;;;;;;8.77;0.90;;;4.60;99.90;;;;;;6156420;23;20013;-83
2021/11/22 04:21:23;;;;;;;6.68;0.60;;;3.60;99.90;;;;;;6183662;23;20009;-83
2021/11/22 04:23:49;;;;;;;4.57;0.65;;;4.10;99.90;;;;;;6156078;23;20032;-83
2021/11/22 04:26:15;;;;;;;4.40;0.70;;;3.30;99.90;;;;;;6183064;23;20704;-83
2021/11/22 04:28:41;;;;;;;4.20;0.70;;;3.20;99.90;;;;;;6181470;23;20013;-83
2021/11/22 04:31:07;;;;;;;1.48;0.90;;;3.70;99.90;;;;;;6154451;23;20102;-83
2021/11/22 04:33:33;;;;;;;4.47;0.70;;;3.20;99.90;;;;;;6180873;23;20111;-83
2021/11/22 04:35:59;;;;;;;5.65;0.80;;;2.90;99.90;;;;;;6181547;23;20368;-83
2021/11/22 04:38:25;;;;;;;3.80;0.70;;;2.90;99.90;;;;;;6156645;23;20103;-81
2021/11/22 04:40:51;;;;;;;1.38;0.50;;;3.50;99.90;;;;;;6181471;23;20028;-82
2021/11/22 04:43:17;;;;;;;5.45;0.50;;;3.20;99.90;;;;;;6181175;23;20311;-82
2021/11/22 04:45:43;;;;;;;5.00;0.55;;;2.70;99.90;;;;;;6156085;23;20024;-82
2021/11/22 04:48:09;;;;;;;5.80;0.80;;;2.60;99.90;;;;;;6156587;23;20071;-82
2021/11/22 04:50:35;;;;;;;5.65;0.85;;;2.90;99.90;;;;;;6189263;23;20021;-82
2021/11/22 04:53:03;;;;;;;11.15;0.75;;;2.40;99.90;;;;;;6200994;23;20052;-82
2021/11/22 04:55:29;;;;;;;6.72;0.70;;;2.40;99.90;;;;;;6201354;23;20449;-81
2021/11/22 04:57:55;;;;;;;8.40;0.80;;;2.40;99.90;;;;;;6202256;23;20071;-81
2021/11/22 05:00:23;;;;;;;1.92;0.63;;;2.30;99.90;;;;;;6202134;23;20020;-82
2021/11/22 05:02:51;;;;;;;3.03;0.70;;;2.30;99.90;;;;;;6201406;23;20045;-82
2021/11/22 05:08:58;;;;;;;6.85;0.60;;;2.30;99.90;;;;;;6182848;23;20028;-83
2021/11/22 05:11:23;;;;;;;14.75;1.15;;;2.20;99.90;;;;;;6156860;23;20013;-82
2021/11/22 05:13:49;;;;;;;7.72;0.80;;;3.20;99.90;;;;;;6183893;23;20430;-83
2021/11/22 05:16:15;;;;;;;2.42;0.73;;;2.20;99.90;;;;;;6157320;23;20013;-83
2021/11/22 05:18:40;;;;;;;3.28;1.00;;;2.20;99.90;;;;;;6157499;23;20013;-83
2021/11/22 05:21:25;;;;;;;2.00;0.70;;;2.30;99.90;;;;;;6156860;23;20351;-84
2021/11/22 05:23:54;;;;;;;5.50;1.08;;;2.90;99.90;;;;;;6183301;23;20425;-83
2021/11/22 05:26:20;;;;;;;6.70;0.80;;;2.10;99.90;;;;;;6132143;23;20020;-84
2021/11/22 05:28:46;;;;;;;8.85;0.93;;;2.10;99.90;;;;;;6131908;23;20009;-83
2021/11/22 05:31:11;;;;;;;2.80;0.75;;;2.00;99.90;;;;;;6155552;23;20019;-82
2021/11/22 05:33:37;;;;;;;7.75;0.70;;;2.00;99.90;;;;;;6182398;23;20048;-82
2021/11/22 05:36:03;;;;;;;8.23;1.00;;;1.90;99.90;;;;;;6182645;23;20460;-83
2021/11/22 05:38:31;;;;;;;3.83;0.60;;;1.90;99.90;;;;;;6156375;23;20086;-83
2021/11/22 05:40:57;;;;;;;8.38;1.13;;;2.00;99.90;;;;;;6157149;23;20017;-83
2021/11/22 05:43:23;;;;;;;5.32;0.93;;;2.70;99.90;;;;;;6184427;23;20013;-83
2021/11/22 05:45:49;;;;;;;9.88;1.02;;;2.00;99.90;;;;;;6133161;23;20017;-82
2021/11/22 05:48:14;;;;;;;6.65;0.90;;;1.90;99.90;;;;;;6156215;23;20404;-81
2021/11/22 05:50:42;;;;;;;4.65;0.82;;;2.40;99.90;;;;;;6156665;23;20012;-81
2021/11/22 05:53:08;;;;;;;3.22;0.70;;;2.20;99.90;;;;;;6156516;23;20006;-81
2021/11/22 05:58:01;;;;;;;3.50;0.88;;;2.60;99.90;;;;;;6154913;23;20051;-80
2021/11/22 06:00:26;;;;;;;4.07;1.30;;;2.90;99.90;;;;;;6154977;23;20021;-81
2021/11/22 06:02:52;;;;;;;3.45;0.85;;;2.90;99.90;;;;;;6154372;23;20031;-81
2021/11/22 06:05:18;;;;;;;3.25;0.70;;;2.50;99.90;;;;;;6156557;23;20013;-80
2021/11/22 06:07:44;;;;;;;5.13;0.90;;;1.80;99.90;;;;;;6181726;23;20088;-81
2021/11/22 06:10:10;;;;;;;12.18;1.08;;;2.50;99.90;;;;;;6178972;23;20401;-81
2021/11/22 06:12:36;;;;;;;8.70;2.08;;;2.60;99.90;;;;;;6181204;23;20529;-81
2021/11/22 06:15:02;;;;;;;7.00;1.00;;;2.50;99.90;;;;;;6182144;23;20093;-81
2021/11/22 06:17:28;;;;;;;6.22;1.48;;;1.70;99.90;;;;;;6179798;23;20040;-81
2021/11/22 06:19:54;;;;;;;3.55;1.10;;;2.50;99.90;;;;;;6154762;23;20382;-80
2021/11/22 06:22:20;;;;;;;8.02;1.25;;;2.60;99.90;;;;;;6156182;23;20017;-81
2021/11/22 06:24:46;;;;;;;4.50;1.10;;;1.60;99.90;;;;;;6180559;23;20501;-81
2021/11/22 06:27:13;;;;;;;5.03;1.25;;;1.60;99.90;;;;;;6157001;23;20025;-82
2021/11/22 06:29:38;;;;;;;8.90;1.23;;;1.90;99.90;;;;;;6156565;23;20024;-82
2021/11/22 06:32:10;;;;;;;8.48;0.93;;;2.40;99.90;;;;;;6207732;23;20005;-81
2021/11/22 06:34:37;;;;;;;4.32;0.90;;;1.50;99.90;;;;;;6206817;23;20004;-79
2021/11/22 06:37:26;;;;;;;8.25;1.48;;;1.50;99.90;;;;;;6210877;23;20075;-81
2021/11/22 06:39:56;;;;;;;8.43;1.25;;;1.80;99.90;;;;;;6186838;23;20021;-81
2021/11/22 06:42:21;;;;;;;6.97;1.02;;;1.40;99.90;;;;;;6186282;23;20005;-82
2021/11/22 06:44:48;;;;;;;14.45;1.00;;;2.10;99.90;;;;;;6210750;23;20040;-81
2021/11/22 06:47:15;;;;;;;3.97;1.40;;;1.90;99.90;;;;;;6201415;23;20341;-82
2021/11/22 06:49:40;;;;;;;5.93;1.75;;;1.40;99.90;;;;;;6181755;23;20017;-76
2021/11/22 06:52:06;;;;;;;5.72;1.23;;;1.40;99.90;;;;;;6181609;23;20377;-78
2021/11/22 06:54:32;;;;;;;8.93;1.50;;;1.40;99.90;;;;;;6181390;23;20368;-79
2021/11/22 06:56:58;;;;;;;6.30;1.10;;;1.30;99.90;;;;;;6181887;23;20440;-80
2021/11/22 06:59:27;;;;;;;8.98;1.48;;;1.20;99.90;;;;;;6156943;23;20017;-80
2021/11/22 07:01:53;;;;;;;9.00;1.30;;;1.20;99.90;;;;;;6181676;23;20097;-80
2021/11/22 07:04:19;;;;;;;8.68;2.00;;;1.30;99.90;;;;;;6181527;23;20452;-78
2021/11/22 07:06:44;;;;;;;9.73;2.65;;;1.30;99.90;;;;;;6181540;23;20017;-79
2021/11/22 07:09:10;;;;;;;9.00;2.40;;;1.40;99.90;;;;;;6181810;23;20575;-81
2021/11/22 07:11:37;;;;;;;7.10;2.03;;;1.70;99.90;;;;;;6182040;23;20096;-79
2021/11/22 07:14:05;;;;;;;10.48;2.22;;;1.60;99.90;;;;;;6181871;23;20112;-80
2021/11/22 07:16:32;;;;;;;10.77;2.35;;;1.50;99.90;;;;;;6179080;23;20071;-80
2021/11/22 07:18:58;;;;;;;8.82;1.80;;;1.40;99.90;;;;;;6156744;23;20448;-79
2021/11/22 07:21:24;;;;;;;8.50;2.13;;;1.30;99.90;;;;;;6156959;23;20019;-80
2021/11/22 07:23:52;;;;;;;7.60;1.70;;;1.30;99.90;;;;;;6157505;23;20084;-81
2021/11/22 07:26:18;;;;;;;5.28;1.70;;;1.30;99.90;;;;;;6183514;23;20024;-81
2021/11/22 07:28:45;;;;;;;6.85;1.67;;;1.30;99.90;;;;;;6181596;23;20010;-80
2021/11/22 07:31:11;;;;;;;4.03;1.80;;;1.30;99.90;;;;;;6156338;23;20013;-81
2021/11/22 07:33:36;;;;;;;7.15;1.80;;;1.30;99.90;;;;;;6181083;23;20019;-79
2021/11/22 07:36:03;;;;;;;7.00;1.83;;;1.30;99.90;;;;;;6157651;23;20440;-79
2021/11/22 07:38:28;;;;;;;13.98;2.33;;;1.30;99.90;;;;;;6157145;23;20009;-82
2021/11/22 07:40:55;;;;;;;5.65;1.90;;;1.80;99.90;;;;;;6184011;23;20314;-81
2021/11/22 07:43:21;;;;;;;8.00;2.20;;;1.40;99.90;;;;;;6182306;23;20013;-82
2021/11/22 07:45:47;;;;;;;3.78;1.70;;;1.30;99.90;;;;;;6159362;23;20055;-83
2021/11/22 07:48:14;;;;;;;8.68;2.05;;;1.30;99.90;;;;;;6157234;23;20028;-83
2021/11/22 07:50:58;;;;;;;12.75;2.00;;;2.00;99.90;;;;;;6158422;23;20021;-82
2021/11/22 07:53:26;;;;;;;7.72;2.00;;;1.40;99.90;;;;;;6183301;23;20013;-87
2021/11/22 07:55:51;;;;;;;7.57;2.47;;;1.40;99.90;;;;;;6183386;23;20013;-85
2021/11/22 07:58:17;;;;;;;5.25;1.98;;;1.40;99.90;;;;;;6157205;23;20062;-85
2021/11/22 08:00:43;;;;;;;20.67;2.90;;;1.40;99.90;;;;;;6159438;23;20075;-87
2021/11/22 08:03:09;;;;;;;8.35;2.30;;;1.40;99.90;;;;;;6182817;23;20111;-86
2021/11/22 08:05:35;;;;;;;12.88;2.15;;;1.50;99.90;;;;;;6157994;23;20112;-85
2021/11/22 08:08:02;;;;;;;21.90;3.00;;;1.50;99.90;;;;;;6157930;23;20103;-86
2021/11/22 08:10:29;;;;;;;14.55;2.92;;;1.50;99.90;;;;;;6157779;23;20025;-84
2021/11/22 08:13:01;;;;;;;11.18;3.03;;;2.40;99.90;;;;;;6157576;23;20017;-85
2021/11/22 08:15:28;;;;;;;18.77;3.10;;;2.40;99.90;;;;;;6157562;23;20060;-84
2021/11/22 08:17:54;;;;;;;25.00;2.97;;;1.60;99.90;;;;;;6184061;23;20020;-82
2021/11/22 08:20:30;;;;;;;17.77;2.95;;;1.50;99.90;;;;;;6183289;23;20017;-84
2021/11/22 08:22:56;;;;;;;27.05;3.05;;;1.70;99.90;;;;;;6158534;23;20013;-84
2021/11/22 08:25:26;;;;;;;16.48;2.80;;;1.60;99.90;;;;;;6184486;23;20020;-85
2021/11/22 08:27:54;;;;;;;13.43;2.95;;;1.60;99.90;;;;;;6184942;23;20475;-84
2021/11/22 08:30:22;;;;;;;15.75;2.75;;;1.70;99.90;;;;;;6160522;23;20043;-85
2021/11/22 08:32:50;;;;;;;8.88;2.50;;;1.70;99.90;;;;;;6158901;23;20080;-84
2021/11/22 08:35:18;;;;;;;12.82;2.78;;;1.70;99.90;;;;;;6159715;23;20429;-80
2021/11/22 08:37:49;;;;;;;9.88;3.05;;;1.80;99.90;;;;;;6157753;23;20020;-79
2021/11/22 08:40:23;;;;;;;13.20;3.17;;;2.40;99.90;;;;;;6158437;23;20013;-83
2021/11/22 08:43:03;;;;;;;10.63;2.95;;;2.30;99.90;;;;;;6154516;23;20025;-81
2021/11/22 08:45:31;;;;;;;18.98;3.00;;;2.00;99.90;;;;;;6176259;23;20031;-80
2021/11/22 08:47:58;;;;;;;18.67;3.30;;;3.00;99.90;;;;;;6130926;23;20095;-86
2021/11/22 08:50:24;;;;;;;8.75;2.60;;;2.90;99.90;;;;;;6157146;23;20426;-83
2021/11/22 08:52:50;;;;;;;11.15;3.45;;;2.80;99.90;;;;;;6157542;23;20051;-81
2021/11/22 08:55:18;;;;;;;12.18;3.47;;;2.60;99.90;;;;;;6182400;23;20096;-80
2021/11/22 08:57:43;;;;;;;9.57;3.08;;;2.30;99.90;;;;;;6154998;23;20016;-83
2021/11/22 09:00:15;;;;;;;12.40;2.95;;;2.30;99.90;;;;;;6184328;23;20356;-78
2021/11/22 09:02:41;;;;;;;9.77;2.50;;;2.40;99.90;;;;;;6180199;23;20013;-78
2021/11/22 09:05:07;;;;;;;10.27;2.88;;;2.50;99.90;;;;;;6155353;23;20431;-81
2021/11/22 09:07:36;;;;;;;8.88;2.65;;;2.50;99.90;;;;;;6155786;23;20020;-85
2021/11/22 09:10:04;;;;;;;9.60;2.65;;;2.60;99.90;;;;;;6157327;23;20021;-79
2021/11/22 09:12:30;;;;;;;5.45;2.40;;;2.90;99.90;;;;;;6182460;23;20064;-83
2021/11/22 09:14:55;;;;;;;9.77;2.50;;;2.90;99.90;;;;;;6157578;23;20048;-84
2021/11/22 09:17:21;;;;;;;8.05;2.95;;;2.90;99.90;;;;;;6181859;23;20009;-86
2021/11/22 09:19:47;;;;;;;34.40;13.20;;;3.00;99.90;;;;;;6157855;23;20067;-82
2021/11/22 09:22:13;;;;;;;16.77;8.88;;;3.00;99.90;;;;;;6157373;23;20020;-83
2021/11/22 09:24:41;;;;;;;11.45;5.07;;;3.10;99.90;;;;;;6156661;23;20287;-84
2021/11/22 09:27:07;;;;;;;21.35;6.70;;;3.10;99.90;;;;;;6157741;23;20048;-81
2021/11/22 09:29:33;;;;;;;13.45;5.75;;;3.20;99.90;;;;;;6181492;23;20021;-82
2021/11/22 09:31:59;;;;;;;16.00;5.00;;;3.40;99.90;;;;;;6156175;23;20013;-85
2021/11/22 09:34:25;;;;;;;12.45;2.53;;;3.50;99.90;;;;;;6157159;23;20294;-86
2021/11/22 09:36:51;;;;;;;6.65;2.78;;;4.40;99.90;;;;;;6156725;23;20024;-84
2021/11/22 09:39:18;;;;;;;16.02;3.35;;;4.30;99.90;;;;;;6155716;23;20013;-83
2021/11/22 09:41:47;;;;;;;15.13;4.45;;;3.80;99.90;;;;;;6154712;23;20017;-83
2021/11/22 09:44:17;;;;;;;6.50;2.92;;;3.90;99.90;;;;;;6132222;23;20016;-81
2021/11/22 09:46:43;;;;;;;14.90;4.05;;;4.10;99.90;;;;;;6156689;23;20009;-83
2021/11/22 09:49:09;;;;;;;18.73;3.15;;;4.20;99.90;;;;;;6157544;23;20013;-84
2021/11/22 09:51:35;;;;;;;17.17;3.00;;;4.40;99.90;;;;;;6155400;23;20040;-83
2021/11/22 09:54:02;;;;;;;15.15;2.58;;;4.50;99.90;;;;;;6155078;23;20302;-82
2021/11/22 09:56:28;;;;;;;13.85;2.25;;;4.60;99.90;;;;;;6184483;23;20311;-85
2021/11/22 09:58:54;;;;;;;7.88;1.90;;;4.70;99.90;;;;;;6182506;23;20433;-86
2021/11/22 10:01:22;;;;;;;14.38;2.05;;;4.80;99.90;;;;;;6182415;23;20020;-85
2021/11/22 10:04:01;;;;;;;9.73;1.95;;;4.80;99.90;;;;;;6181918;23;20027;-85
2021/11/22 10:06:27;;;;;;;7.00;1.52;;;5.00;99.90;;;;;;6182237;23;20096;-86
2021/11/22 10:08:54;;;;;;;5.60;1.23;;;5.10;99.90;;;;;;6156985;23;20307;-81
2021/11/22 10:11:19;;;;;;;5.70;1.70;;;5.50;99.90;;;;;;6157069;23;20397;-85
2021/11/22 10:13:46;;;;;;;12.75;4.05;;;5.30;99.90;;;;;;6158625;23;20014;-82
2021/11/22 10:16:12;;;;;;;8.57;2.30;;;5.40;99.90;;;;;;6182800;23;20087;-83
2021/11/22 10:18:50;;;;;;;2.67;0.88;;;5.50;99.90;;;;;;6157900;23;20044;-83
2021/11/22 10:21:37;;;;;;;5.03;1.33;;;5.70;99.90;;;;;;6182121;23;20088;-86
2021/11/22 10:24:11;;;;;;;5.65;1.27;;;5.70;99.90;;;;;;6156911;23;20025;-83
2021/11/22 10:26:46;;;;;;;6.22;1.50;;;6.00;99.90;;;;;;6182764;23;20028;-84
2021/11/22 10:29:22;;;;;;;3.97;1.10;;;5.90;99.90;;;;;;6157280;23;20035;-81
2021/11/22 10:31:58;;;;;;;9.40;1.33;;;6.00;99.90;;;;;;6156514;23;20426;-85
2021/11/22 10:35:05;;;;;;;7.22;1.40;;;6.20;99.90;;;;;;6180924;23;20015;-85
2021/11/22 10:37:52;;;;;;;7.05;1.52;;;6.00;99.90;;;;;;6157350;23;20072;-83
2021/11/22 10:40:41;;;;;;;8.05;1.20;;;6.40;99.90;;;;;;6157869;23;20025;-84
2021/11/22 10:43:08;;;;;;;2.90;1.10;;;6.60;99.90;;;;;;6181148;23;20020;-83
2021/11/22 10:46:00;;;;;;;7.60;1.30;;;6.70;99.90;;;;;;6158245;23;20016;-83
2021/11/22 10:48:39;;;;;;;8.45;1.50;;;7.60;99.90;;;;;;6156985;23;20024;-83
2021/11/22 10:51:23;;;;;;;5.55;1.60;;;6.80;99.90;;;;;;6156375;23;20012;-84
2021/11/22 10:57:32;;;;;;;7.68;1.90;;;7.00;99.90;;;;;;6068262;23;20550;-84
2021/11/22 11:00:28;;;;;;;7.30;1.90;;;7.10;99.90;;;;;;6092045;23;20018;-79
2021/11/22 11:03:05;;;;;;;10.07;2.05;;;7.70;99.90;;;;;;6065861;23;20018;-81
2021/11/22 11:05:41;;;;;;;2.83;1.20;;;8.10;99.90;;;;;;6043271;23;20014;-81
2021/11/22 11:08:48;;;;;;;8.50;1.35;;;7.20;99.90;;;;;;6066380;23;20054;-81
2021/11/22 11:12:02;;;;;;;6.63;2.10;;;7.20;99.90;;;;;;6038279;23;20134;-81
2021/11/22 11:15:33;;;;;;;6.32;1.70;;;7.80;99.90;;;;;;6060473;23;20030;-81
2021/11/22 11:18:41;;;;;;;7.32;1.52;;;7.40;99.90;;;;;;6036678;23;20014;-81
2021/11/22 11:22:04;;;;;;;5.45;1.58;;;7.50;99.90;;;;;;6062604;23;20019;-81
2021/11/22 11:24:30;;;;;;;6.00;1.75;;;7.70;99.90;;;;;;6016772;23;20560;-81
2021/11/22 11:26:58;;;;;;;6.03;1.67;;;8.00;99.90;;;;;;6015188;23;20059;-81
2021/11/22 11:29:23;;;;;;;9.02;1.40;;;8.00;99.90;;;;;;6038468;23;20022;-81
2021/11/22 11:31:49;;;;;;;5.30;1.13;;;8.00;99.90;;;;;;6038720;23;20340;-81
2021/11/22 11:34:15;;;;;;;5.63;1.10;;;8.00;99.90;;;;;;6132511;23;20453;-81
2021/11/22 11:36:50;;;;;;;4.22;1.10;;;8.20;99.90;;;;;;6126522;23;20036;-81
2021/11/22 11:39:34;;;;;;;6.25;0.90;;;8.30;99.90;;;;;;6151394;23;20442;-79
2021/11/22 11:42:20;;;;;;;9.98;0.95;;;8.30;99.90;;;;;;6150778;23;20017;-78
2021/11/22 11:45:09;;;;;;;4.10;1.00;;;8.40;99.90;;;;;;6151193;23;20084;-79
2021/11/22 11:48:12;;;;;;;7.15;1.17;;;8.40;99.90;;;;;;6137462;23;20022;-81
2021/11/22 11:50:43;;;;;;;4.35;0.90;;;8.30;99.90;;;;;;6128371;23;20116;-81
2021/11/22 11:53:17;;;;;;;5.55;0.90;;;8.50;99.90;;;;;;6128406;23;20013;-81
2021/11/22 11:55:48;;;;;;;4.60;1.10;;;9.10;99.90;;;;;;6128079;23;20021;-81
2021/11/22 11:58:24;;;;;;;8.65;0.90;;;8.70;99.90;;;;;;6153480;23;20010;-80
2021/11/22 12:00:57;;;;;;;2.90;0.70;;;8.70;99.90;;;;;;6127154;23;20021;-80
2021/11/22 12:03:25;;;;;;;4.03;0.95;;;8.70;99.90;;;;;;6126766;23;20017;-81
2021/11/22 12:05:53;;;;;;;4.00;1.17;;;8.90;99.90;;;;;;6152478;23;20093;-82
2021/11/22 12:08:25;;;;;;;8.38;1.20;;;8.80;99.90;;;;;;6127266;23;20292;-80
2021/11/22 12:10:53;;;;;;;4.82;0.95;;;8.90;99.90;;;;;;6155260;23;20017;-79
2021/11/22 12:13:19;;;;;;;6.13;0.93;;;8.90;99.90;;;;;;6156632;23;20017;-83
2021/11/22 12:15:51;;;;;;;3.47;0.93;;;8.90;99.90;;;;;;6132559;23;20097;-82
2021/11/22 12:18:29;;;;;;;7.88;1.08;;;8.90;99.90;;;;;;6155408;23;20009;-83
2021/11/22 12:21:10;;;;;;;7.18;0.98;;;9.00;99.90;;;;;;6156450;23;20036;-81
2021/11/22 12:23:48;;;;;;;7.65;1.15;;;8.90;99.90;;;;;;6132283;23;20316;-81
2021/11/22 12:26:36;;;;;;;1.80;0.60;;;9.00;99.90;;;;;;6155128;23;20555;-79
2021/11/22 12:29:04;;;;;;;9.48;1.25;;;8.90;99.90;;;;;;6155931;23;20310;-79
2021/11/22 12:31:34;;;;;;;5.28;0.80;;;9.00;99.90;;;;;;6155788;23;20019;-77
2021/11/22 12:34:03;;;;;;;5.13;1.13;;;9.00;99.90;;;;;;6131590;23;20329;-79
2021/11/22 12:36:32;;;;;;;3.70;0.70;;;9.00;99.90;;;;;;6132220;23;20044;-79
2021/11/22 12:39:10;;;;;;;4.97;0.93;;;9.00;99.90;;;;;;6130393;23;20013;-79
2021/11/22 12:41:38;;;;;;;6.95;0.88;;;9.00;99.90;;;;;;6155438;23;20048;-79
2021/11/22 12:44:11;;;;;;;4.78;0.77;;;9.10;99.90;;;;;;6155926;23;20012;-80
2021/11/22 12:46:41;;;;;;;3.67;0.68;;;9.10;99.90;;;;;;6155323;23;20013;-79
2021/11/22 12:49:34;;;;;;;4.82;0.93;;;8.90;99.90;;;;;;6155781;23;20017;-80
2021/11/22 12:52:17;;;;;;;7.90;1.10;;;8.90;99.90;;;;;;6066977;23;20010;-79
2021/11/22 12:55:15;;;;;;;5.07;1.15;;;8.70;99.90;;;;;;6066971;23;20025;-79
2021/11/22 12:57:43;;;;;;;5.25;0.80;;;8.60;99.90;;;;;;6066921;23;20343;-79
2021/11/22 13:00:09;;;;;;;2.60;1.00;;;8.70;99.90;;;;;;6067181;23;20142;-79
2021/11/22 13:02:50;;;;;;;4.43;0.95;;;8.60;99.90;;;;;;6042493;23;20046;-81
2021/11/22 13:05:44;;;;;;;3.55;0.80;;;8.60;99.90;;;;;;6066665;23;20100;-81
2021/11/22 13:08:32;;;;;;;4.07;1.13;;;8.60;99.90;;;;;;6043232;23;20022;-82
2021/11/22 13:11:06;;;;;;;4.68;0.75;;;8.60;99.90;;;;;;6094282;23;20049;-80
2021/11/22 13:16:17;;;;;;;7.65;1.30;;;8.70;99.90;;;;;;6095202;23;20084;-80
2021/11/22 13:18:55;;;;;;;7.25;1.05;;;8.70;99.90;;;;;;6093333;23;20053;-79
2021/11/22 13:21:28;;;;;;;3.50;0.88;;;8.80;99.90;;;;;;6094696;23;20020;-81